Time,TemperatureF,DewpointF,PressureIn,WindDirection,WindDirectionDegrees,WindSpeedMPH,WindSpeedGustMPH,Humidity,HourlyPrecipIn,Conditions,Clouds,dailyrainin,SolarRadiationWatts/m^2,SoftwareType,DateUTC
2013-01-27 00:01:00,43.0,32.0,-100.00,SW,223,18.0,26.0,65,0.00,,,0.09,0.000000,,2013-01-27 08:01:00,
2013-01-27 00:11:00,43.0,32.0,-100.00,SW,223,18.0,26.0,65,0.00,,,0.09,0.000000,,2013-01-27 08:11:00,
2013-01-27 00:21:00,43.0,32.0,-100.00,SW,223,18.0,26.0,65,0.00,,,0.09,0.000000,,2013-01-27 08:21:00,
2013-01-27 00:52:00,43.0,36.0,-100.00,SSW,206,20.0,29.0,75,0.00,,,0.08,0.000000,,2013-01-27 08:52:00,
2013-01-27 01:02:00,43.0,36.0,-100.00,SSW,206,20.0,29.0,75,0.00,,,0.08,0.000000,,2013-01-27 09:02:00,
2013-01-27 01:11:00,43.0,36.0,-100.00,SSW,206,20.0,29.0,75,0.00,,,0.08,0.000000,,2013-01-27 09:11:00,
2013-01-27 01:21:00,43.0,36.0,-100.00,SSW,206,20.0,29.0,75,0.00,,,0.08,0.000000,,2013-01-27 09:21:00,
2013-01-27 01:52:00,42.0,36.0,-100.00,SSW,204,17.0,29.0,79,0.00,,,0.06,0.000000,,2013-01-27 09:52:00,
2013-01-27 02:01:00,42.0,36.0,-100.00,SSW,204,17.0,29.0,79,0.00,,,0.06,0.000000,,2013-01-27 10:01:00,
2013-01-27 02:11:00,42.0,36.0,-100.00,SSW,204,17.0,29.0,79,0.00,,,0.06,0.000000,,2013-01-27 10:11:00,
2013-01-27 02:21:00,42.0,36.0,-100.00,SSW,204,17.0,29.0,79,0.00,,,0.06,0.000000,,2013-01-27 10:21:00,
2013-01-27 02:52:00,44.0,32.0,-100.00,WSW,237,11.0,23.0,62,0.00,,,0.05,0.000000,,2013-01-27 10:52:00,
2013-01-27 03:01:00,44.0,32.0,-100.00,WSW,237,11.0,23.0,62,0.00,,,0.05,0.000000,,2013-01-27 11:01:00,
2013-01-27 03:11:00,44.0,32.0,-100.00,WSW,237,11.0,23.0,62,0.00,,,0.05,0.000000,,2013-01-27 11:11:00,
2013-01-27 03:21:00,44.0,32.0,-100.00,WSW,237,11.0,23.0,62,0.00,,,0.05,0.000000,,2013-01-27 11:21:00,
2013-01-27 03:52:00,40.0,32.0,-100.00,SSW,195,10.0,25.0,74,0.00,,,0.02,0.000000,,2013-01-27 11:52:00,
2013-01-27 04:02:00,40.0,32.0,-100.00,SSW,195,10.0,25.0,74,0.00,,,0.02,0.000000,,2013-01-27 12:02:00,
2013-01-27 04:11:00,40.0,32.0,-100.00,SSW,195,10.0,25.0,74,0.00,,,0.02,0.000000,,2013-01-27 12:11:00,
2013-01-27 04:21:00,40.0,32.0,-100.00,SSW,195,10.0,25.0,74,0.00,,,0.02,0.000000,,2013-01-27 12:21:00,
2013-01-27 04:52:00,39.0,34.0,-100.00,South,187,19.0,24.0,82,0.00,,,0.01,0.000000,,2013-01-27 12:52:00,
2013-01-27 05:02:00,39.0,34.0,-100.00,South,187,19.0,24.0,82,0.00,,,0.01,0.000000,,2013-01-27 13:02:00,
2013-01-27 05:11:00,39.0,34.0,-100.00,South,187,19.0,24.0,82,0.00,,,0.01,0.000000,,2013-01-27 13:11:00,
2013-01-27 05:22:00,39.0,34.0,-100.00,South,187,19.0,24.0,82,0.00,,,0.01,0.000000,,2013-01-27 13:22:00,
2013-01-27 05:52:00,39.0,35.0,-100.00,SSW,194,14.0,26.0,87,0.00,,,0.01,0.000000,,2013-01-27 13:52:00,
2013-01-27 06:01:00,39.0,35.0,-100.00,SSW,194,14.0,26.0,87,0.00,,,0.01,0.000000,,2013-01-27 14:01:00,
2013-01-27 06:11:00,39.0,35.0,-100.00,SSW,194,14.0,26.0,87,0.00,,,0.01,0.000000,,2013-01-27 14:11:00,
2013-01-27 06:21:00,39.0,35.0,-100.00,SSW,194,14.0,26.0,87,0.00,,,0.01,0.000000,,2013-01-27 14:21:00,
2013-01-27 07:11:00,38.0,33.0,-100.00,SW,215,25.0,36.0,82,0.00,,,-99.99,0.000000,,2013-01-27 15:11:00,
2013-01-27 07:21:00,38.0,33.0,-100.00,SW,215,25.0,36.0,82,0.00,,,-99.99,0.000000,,2013-01-27 15:21:00,
2013-01-27 07:53:00,35.0,32.0,-100.00,SSW,209,16.0,33.0,89,0.00,,,0.00,10.000000,,2013-01-27 15:53:00,
2013-01-27 08:02:00,35.0,32.0,-100.00,SSW,209,16.0,33.0,89,0.00,,,0.00,10.000000,,2013-01-27 16:02:00,
2013-01-27 08:11:00,35.0,32.0,-100.00,SSW,209,16.0,33.0,89,0.00,,,0.00,10.000000,,2013-01-27 16:11:00,
2013-01-27 08:21:00,35.0,32.0,-100.00,SSW,209,16.0,33.0,89,0.00,,,0.00,10.000000,,2013-01-27 16:21:00,
2013-01-27 08:53:00,39.0,30.0,-100.00,SW,220,13.0,21.0,70,0.00,,,0.00,184.000000,,2013-01-27 16:53:00,
2013-01-27 09:01:00,39.0,30.0,-100.00,SW,220,13.0,21.0,70,0.00,,,0.00,184.000000,,2013-01-27 17:01:00,
2013-01-27 09:12:00,39.0,30.0,-100.00,SW,220,13.0,21.0,70,0.00,,,0.00,184.000000,,2013-01-27 17:12:00,
2013-01-27 09:21:00,39.0,30.0,-100.00,SW,220,13.0,21.0,70,0.00,,,0.00,184.000000,,2013-01-27 17:21:00,
2013-01-27 09:52:00,43.0,25.0,-100.00,NW,310,8.0,24.0,49,0.00,,,0.00,404.000000,,2013-01-27 17:52:00,
2013-01-27 10:02:00,43.0,25.0,-100.00,NW,310,8.0,24.0,49,0.00,,,0.00,404.000000,,2013-01-27 18:02:00,
2013-01-27 10:11:00,43.0,25.0,-100.00,NW,310,8.0,24.0,49,0.00,,,0.00,404.000000,,2013-01-27 18:11:00,
2013-01-27 10:22:00,43.0,25.0,-100.00,NW,310,8.0,24.0,49,0.00,,,0.00,404.000000,,2013-01-27 18:22:00,
2013-01-27 10:52:00,42.0,18.0,-100.00,WNW,296,10.0,26.0,37,0.00,,,0.00,592.000000,,2013-01-27 18:52:00,
2013-01-27 11:01:00,42.0,18.0,-100.00,WNW,296,10.0,26.0,37,0.00,,,0.00,592.000000,,2013-01-27 19:01:00,
2013-01-27 11:11:00,42.0,18.0,-100.00,WNW,296,10.0,26.0,37,0.00,,,0.00,592.000000,,2013-01-27 19:11:00,
2013-01-27 11:21:00,42.0,18.0,-100.00,WNW,296,10.0,26.0,37,0.00,,,0.00,592.000000,,2013-01-27 19:21:00,
2013-01-27 11:52:00,44.0,15.0,-100.00,WSW,247,11.0,26.0,30,0.00,,,0.00,723.000000,,2013-01-27 19:52:00,
2013-01-27 12:11:00,44.0,15.0,-100.00,WSW,247,11.0,26.0,30,0.00,,,0.00,723.000000,,2013-01-27 20:11:00,
2013-01-27 12:21:00,44.0,15.0,-100.00,WSW,247,11.0,26.0,30,0.00,,,0.00,723.000000,,2013-01-27 20:21:00,
2013-01-27 12:52:00,44.0,12.0,-100.00,WSW,244,10.0,33.0,27,0.00,,,0.00,778.000000,,2013-01-27 20:52:00,
2013-01-27 13:02:00,44.0,12.0,-100.00,WSW,244,10.0,33.0,27,0.00,,,0.00,778.000000,,2013-01-27 21:02:00,
2013-01-27 13:52:00,43.0,13.0,-100.00,SW,232,18.0,34.0,29,0.00,,,0.00,753.000000,,2013-01-27 21:52:00,
2013-01-27 14:11:00,43.0,13.0,-100.00,SW,232,18.0,34.0,29,0.00,,,0.00,753.000000,,2013-01-27 22:11:00,
2013-01-27 14:21:00,43.0,13.0,-100.00,SW,232,18.0,34.0,29,0.00,,,0.00,753.000000,,2013-01-27 22:21:00,
2013-01-27 14:52:00,43.0,14.0,-100.00,NE,39,10.0,31.0,30,0.00,,,0.00,661.000000,,2013-01-27 22:52:00,
2013-01-27 15:02:00,43.0,14.0,-100.00,NE,39,10.0,31.0,30,0.00,,,0.00,661.000000,,2013-01-27 23:02:00,
2013-01-27 15:11:00,43.0,14.0,-100.00,NE,39,10.0,31.0,30,0.00,,,0.00,661.000000,,2013-01-27 23:11:00,
2013-01-27 15:21:00,43.0,14.0,-100.00,NE,39,10.0,31.0,30,0.00,,,0.00,661.000000,,2013-01-27 23:21:00,
2013-01-27 15:53:00,41.0,14.0,-100.00,WNW,301,12.0,26.0,33,0.00,,,0.00,498.000000,,2013-01-27 23:53:00,
2013-01-27 16:01:00,41.0,14.0,-100.00,WNW,301,12.0,26.0,33,0.00,,,0.00,498.000000,,2013-01-28 00:01:00,
2013-01-27 16:11:00,41.0,14.0,-100.00,WNW,301,12.0,26.0,33,0.00,,,0.00,498.000000,,2013-01-28 00:11:00,
2013-01-27 16:21:00,41.0,14.0,-100.00,WNW,301,12.0,26.0,33,0.00,,,0.00,498.000000,,2013-01-28 00:21:00,
2013-01-27 16:52:00,36.0,17.0,-100.00,NNE,26,13.0,29.0,46,0.00,,,0.00,284.000000,,2013-01-28 00:52:00,
2013-01-27 17:01:00,36.0,17.0,-100.00,NNE,26,13.0,29.0,46,0.00,,,0.00,284.000000,,2013-01-28 01:01:00,
2013-01-27 17:11:00,36.0,17.0,-100.00,NNE,26,13.0,29.0,46,0.00,,,0.00,284.000000,,2013-01-28 01:11:00,
2013-01-27 17:21:00,36.0,17.0,-100.00,NNE,26,13.0,29.0,46,0.00,,,0.00,284.000000,,2013-01-28 01:21:00,
2013-01-27 17:52:00,35.0,19.0,-100.00,SSW,212,13.0,26.0,51,0.00,,,0.00,44.000000,,2013-01-28 01:52:00,
2013-01-27 18:02:00,35.0,19.0,-100.00,SSW,212,13.0,26.0,51,0.00,,,0.00,44.000000,,2013-01-28 02:02:00,
2013-01-27 18:11:00,35.0,19.0,-100.00,SSW,212,13.0,26.0,51,0.00,,,0.00,44.000000,,2013-01-28 02:11:00,
2013-01-27 18:21:00,35.0,19.0,-100.00,SSW,212,13.0,26.0,51,0.00,,,0.00,44.000000,,2013-01-28 02:21:00,
2013-01-27 18:52:00,36.0,18.0,-100.00,WNW,303,9.0,24.0,48,0.00,,,0.00,0.000000,,2013-01-28 02:52:00,
2013-01-27 19:02:00,36.0,18.0,-100.00,WNW,303,9.0,24.0,48,0.00,,,0.00,0.000000,,2013-01-28 03:02:00,
2013-01-27 19:11:00,36.0,18.0,-100.00,WNW,303,9.0,24.0,48,0.00,,,0.00,0.000000,,2013-01-28 03:11:00,
2013-01-27 19:21:00,36.0,18.0,-100.00,WNW,303,9.0,24.0,48,0.00,,,0.00,0.000000,,2013-01-28 03:21:00,
2013-01-27 19:53:00,34.0,18.0,-100.00,NW,313,18.0,30.0,52,0.00,,,0.00,0.000000,,2013-01-28 03:53:00,
2013-01-27 20:01:00,34.0,18.0,-100.00,NW,313,18.0,30.0,52,0.00,,,0.00,0.000000,,2013-01-28 04:01:00,
2013-01-27 20:11:00,34.0,18.0,-100.00,NW,313,18.0,30.0,52,0.00,,,0.00,0.000000,,2013-01-28 04:11:00,
2013-01-27 20:21:00,34.0,18.0,-100.00,NW,313,18.0,30.0,52,0.00,,,0.00,0.000000,,2013-01-28 04:21:00,
2013-01-27 20:52:00,37.0,19.0,-100.00,NNE,18,16.0,25.0,47,0.00,,,0.00,0.000000,,2013-01-28 04:52:00,
2013-01-27 21:11:00,37.0,19.0,-100.00,NNE,18,16.0,25.0,47,0.00,,,0.00,0.000000,,2013-01-28 05:11:00,
2013-01-27 21:21:00,37.0,19.0,-100.00,NNE,18,16.0,25.0,47,0.00,,,0.00,0.000000,,2013-01-28 05:21:00,
2013-01-27 21:52:00,32.0,27.0,-100.00,NNW,331,13.0,32.0,80,0.00,,,0.00,0.000000,,2013-01-28 05:52:00,
2013-01-27 22:02:00,32.0,27.0,-100.00,NNW,331,13.0,32.0,80,0.00,,,0.00,0.000000,,2013-01-28 06:02:00,
2013-01-27 22:11:00,32.0,27.0,-100.00,NNW,331,13.0,32.0,80,0.00,,,0.00,0.000000,,2013-01-28 06:11:00,
2013-01-27 22:21:00,32.0,27.0,-100.00,NNW,331,13.0,32.0,80,0.00,,,0.00,0.000000,,2013-01-28 06:21:00,
2013-01-27 22:52:00,35.0,24.0,-100.00,NW,325,15.0,25.0,63,0.00,,,0.00,0.000000,,2013-01-28 06:52:00,
2013-01-27 23:02:00,35.0,24.0,-100.00,NW,325,15.0,25.0,63,0.00,,,0.00,0.000000,,2013-01-28 07:02:00,
2013-01-27 23:11:00,35.0,24.0,-100.00,NW,325,15.0,25.0,63,0.00,,,0.00,0.000000,,2013-01-28 07:11:00,
2013-01-27 23:21:00,35.0,24.0,-100.00,NW,325,15.0,25.0,63,0.00,,,0.00,0.000000,,2013-01-28 07:21:00,
2013-01-27 23:52:00,34.0,22.0,-100.00,WNW,292,5.0,24.0,61,0.00,,,0.00,0.000000,,2013-01-28 07:52:00,